sensor_id;sensor_type;location;lat;lon;timestamp;pressure;altitude;pressure_sealevel;temperature;humidity
80911;BME280;70359;51.420;7.032;2024-02-21T00:01:23;1008.252;;;10.41;58.10938
80911;BME280;70359;51.420;7.032;2024-02-21T00:03:48;1008.214;;;10.45;58.28418
80911;BME280;70359;51.420;7.032;2024-02-21T00:06:13;1008.146;;;10.46;58.04785
80911;BME280;70359;51.420;7.032;2024-02-21T00:08:38;1008.104;;;10.49;58.06348
80911;BME280;70359;51.420;7.032;2024-02-21T00:11:03;1008.085;;;10.47;58.08301
80911;BME280;70359;51.420;7.032;2024-02-21T00:13:28;1008.104;;;10.53;58.19336
80911;BME280;70359;51.420;7.032;2024-02-21T00:15:53;1008.043;;;10.6;57.9541
80911;BME280;70359;51.420;7.032;2024-02-21T00:18:18;1008.019;;;10.57;57.50781
80911;BME280;70359;51.420;7.032;2024-02-21T00:20:43;1008.017;;;10.63;57.91113
80911;BME280;70359;51.420;7.032;2024-02-21T00:23:08;1008.002;;;10.64;57.65332
80911;BME280;70359;51.420;7.032;2024-02-21T00:25:33;1007.928;;;10.66;57.53223
80911;BME280;70359;51.420;7.032;2024-02-21T00:27:58;1007.897;;;10.64;57.89063
80911;BME280;70359;51.420;7.032;2024-02-21T00:30:23;1007.777;;;10.66;58.01855
80911;BME280;70359;51.420;7.032;2024-02-21T00:32:48;1007.696;;;10.65;57.71094
80911;BME280;70359;51.420;7.032;2024-02-21T00:35:13;1007.701;;;10.73;57.54004
80911;BME280;70359;51.420;7.032;2024-02-21T00:37:38;1007.728;;;10.63;57.7207
80911;BME280;70359;51.420;7.032;2024-02-21T00:40:03;1007.689;;;10.67;57.64551
80911;BME280;70359;51.420;7.032;2024-02-21T00:42:28;1007.608;;;10.65;57.8916
80911;BME280;70359;51.420;7.032;2024-02-21T00:44:53;1007.581;;;10.76;57.5332
80911;BME280;70359;51.420;7.032;2024-02-21T00:47:18;1007.626;;;10.71;57.61719
80911;BME280;70359;51.420;7.032;2024-02-21T00:49:43;1007.566;;;10.73;57.4834
80911;BME280;70359;51.420;7.032;2024-02-21T00:52:08;1007.518;;;10.69;57.69434
80911;BME280;70359;51.420;7.032;2024-02-21T00:54:33;1007.469;;;10.76;57.6582
80911;BME280;70359;51.420;7.032;2024-02-21T00:56:58;1007.453;;;10.73;57.74414
80911;BME280;70359;51.420;7.032;2024-02-21T00:59:23;1007.478;;;10.76;57.5332
80911;BME280;70359;51.420;7.032;2024-02-21T01:01:48;1007.512;;;10.73;57.5752
80911;BME280;70359;51.420;7.032;2024-02-21T01:04:13;1007.429;;;10.71;57.59375
80911;BME280;70359;51.420;7.032;2024-02-21T01:06:38;1007.392;;;10.71;57.85547
80911;BME280;70359;51.420;7.032;2024-02-21T01:09:03;1007.344;;;10.71;57.86621
80911;BME280;70359;51.420;7.032;2024-02-21T01:11:28;1007.283;;;10.68;57.91797
80911;BME280;70359;51.420;7.032;2024-02-21T01:13:53;1007.256;;;10.68;57.9082
80911;BME280;70359;51.420;7.032;2024-02-21T01:16:18;1007.164;;;10.64;57.90234
80911;BME280;70359;51.420;7.032;2024-02-21T01:18:43;1007.164;;;10.62;58.10352
80911;BME280;70359;51.420;7.032;2024-02-21T01:21:08;1007.166;;;10.66;57.91699
80911;BME280;70359;51.420;7.032;2024-02-21T01:23:33;1007.133;;;10.65;57.80176
80911;BME280;70359;51.420;7.032;2024-02-21T01:25:58;1007.099;;;10.68;57.77246
80911;BME280;70359;51.420;7.032;2024-02-21T01:28:23;1006.963;;;10.63;58.11523
80911;BME280;70359;51.420;7.032;2024-02-21T01:30:48;1006.824;;;10.57;58.18652
80911;BME280;70359;51.420;7.032;2024-02-21T01:33:13;1006.795;;;10.53;58.21582
80911;BME280;70359;51.420;7.032;2024-02-21T01:35:38;1006.757;;;10.56;58.02832
80911;BME280;70359;51.420;7.032;2024-02-21T01:38:03;1006.734;;;10.47;58.40039
80911;BME280;70359;51.420;7.032;2024-02-21T01:40:28;1006.768;;;10.5;58.3584
80911;BME280;70359;51.420;7.032;2024-02-21T01:42:53;1006.776;;;10.48;58.59375
80911;BME280;70359;51.420;7.032;2024-02-21T01:45:18;1006.735;;;10.54;58.36426
80911;BME280;70359;51.420;7.032;2024-02-21T01:47:43;1006.679;;;10.5;58.43945
80911;BME280;70359;51.420;7.032;2024-02-21T01:50:08;1006.638;;;10.47;58.45703
80911;BME280;70359;51.420;7.032;2024-02-21T01:52:33;1006.647;;;10.44;58.87207
80911;BME280;70359;51.420;7.032;2024-02-21T01:54:59;1006.626;;;10.53;58.44238
80911;BME280;70359;51.420;7.032;2024-02-21T01:57:23;1006.651;;;10.46;58.65918
80911;BME280;70359;51.420;7.032;2024-02-21T01:59:48;1006.584;;;10.54;58.56836
80911;BME280;70359;51.420;7.032;2024-02-21T02:02:13;1006.51;;;10.46;58.76074
80911;BME280;70359;51.420;7.032;2024-02-21T02:04:38;1006.541;;;10.47;58.69434
80911;BME280;70359;51.420;7.032;2024-02-21T02:07:03;1006.547;;;10.28;59.31348
80911;BME280;70359;51.420;7.032;2024-02-21T02:09:28;1006.508;;;10.36;59.22266
80911;BME280;70359;51.420;7.032;2024-02-21T02:11:53;1006.524;;;10.39;59.02344
80911;BME280;70359;51.420;7.032;2024-02-21T02:14:18;1006.449;;;10.42;58.92578
80911;BME280;70359;51.420;7.032;2024-02-21T02:16:45;1006.383;;;10.42;58.74414
80911;BME280;70359;51.420;7.032;2024-02-21T02:19:08;1006.27;;;10.4;58.93457
80911;BME280;70359;51.420;7.032;2024-02-21T02:21:35;1006.26;;;10.35;58.81445
80911;BME280;70359;51.420;7.032;2024-02-21T02:23:58;1006.226;;;10.31;59.01172
80911;BME280;70359;51.420;7.032;2024-02-21T02:26:23;1006.072;;;10.22;59.08008
80911;BME280;70359;51.420;7.032;2024-02-21T02:28:48;1006.113;;;10.25;59.33301
80911;BME280;70359;51.420;7.032;2024-02-21T02:31:13;1006.091;;;10.23;59.16113
80911;BME280;70359;51.420;7.032;2024-02-21T02:33:38;1006.049;;;10.15;59.60254
80911;BME280;70359;51.420;7.032;2024-02-21T02:36:03;1005.955;;;10.24;59.25098
80911;BME280;70359;51.420;7.032;2024-02-21T02:38:28;1005.871;;;10.26;59.35645
80911;BME280;70359;51.420;7.032;2024-02-21T02:40:53;1005.917;;;10.34;59.00586
80911;BME280;70359;51.420;7.032;2024-02-21T02:43:18;1005.882;;;10.3;59.02344
80911;BME280;70359;51.420;7.032;2024-02-21T02:45:43;1005.79;;;10.29;59.07813
80911;BME280;70359;51.420;7.032;2024-02-21T02:48:08;1005.712;;;10.3;58.96582
80911;BME280;70359;51.420;7.032;2024-02-21T02:50:33;1005.751;;;10.21;58.96582
80911;BME280;70359;51.420;7.032;2024-02-21T02:52:58;1005.768;;;10.28;58.86133
80911;BME280;70359;51.420;7.032;2024-02-21T02:55:23;1005.706;;;10.22;58.96777
80911;BME280;70359;51.420;7.032;2024-02-21T02:57:48;1005.703;;;10.2;59.12305
80911;BME280;70359;51.420;7.032;2024-02-21T03:00:14;1005.624;;;10.3;58.93262
80911;BME280;70359;51.420;7.032;2024-02-21T03:02:39;1005.676;;;10.16;59.24121
80911;BME280;70359;51.420;7.032;2024-02-21T03:05:03;1005.646;;;10.23;59.12695
80911;BME280;70359;51.420;7.032;2024-02-21T03:07:28;1005.628;;;10.13;59.39648
80911;BME280;70359;51.420;7.032;2024-02-21T03:09:53;1005.628;;;10.17;59.33301
80911;BME280;70359;51.420;7.032;2024-02-21T03:12:18;1005.591;;;10.11;59.5957
80911;BME280;70359;51.420;7.032;2024-02-21T03:14:43;1005.527;;;10.01;59.72949
80911;BME280;70359;51.420;7.032;2024-02-21T03:17:08;1005.603;;;10.08;59.61523
80911;BME280;70359;51.420;7.032;2024-02-21T03:19:33;1005.587;;;10.17;59.48047
80911;BME280;70359;51.420;7.032;2024-02-21T03:21:58;1005.593;;;10.19;59.37109
80911;BME280;70359;51.420;7.032;2024-02-21T03:24:23;1005.551;;;10.2;59.43945
80911;BME280;70359;51.420;7.032;2024-02-21T03:26:48;1005.517;;;10.08;59.61523
80911;BME280;70359;51.420;7.032;2024-02-21T03:29:13;1005.422;;;10.14;59.44141
80911;BME280;70359;51.420;7.032;2024-02-21T03:31:38;1005.413;;;10.17;59.26563
80911;BME280;70359;51.420;7.032;2024-02-21T03:34:03;1005.301;;;10.25;59.15039
80911;BME280;70359;51.420;7.032;2024-02-21T03:36:28;1005.327;;;10.23;59.01367
80911;BME280;70359;51.420;7.032;2024-02-21T03:38:53;1005.314;;;10.04;59.42773
80911;BME280;70359;51.420;7.032;2024-02-21T03:41:18;1005.283;;;10.05;59.24902
80911;BME280;70359;51.420;7.032;2024-02-21T03:43:43;1005.322;;;10.09;59.57129
80911;BME280;70359;51.420;7.032;2024-02-21T03:46:08;1005.328;;;10.07;59.36621
80911;BME280;70359;51.420;7.032;2024-02-21T03:48:33;1005.37;;;10.15;59.39844
80911;BME280;70359;51.420;7.032;2024-02-21T03:50:58;1005.364;;;10.2;59.03223
80911;BME280;70359;51.420;7.032;2024-02-21T03:53:23;1005.357;;;10.16;59.22949
80911;BME280;70359;51.420;7.032;2024-02-21T03:55:48;1005.388;;;10.18;59.22168
80911;BME280;70359;51.420;7.032;2024-02-21T03:58:13;1005.402;;;10.13;59.39453
80911;BME280;70359;51.420;7.032;2024-02-21T04:00:38;1005.417;;;10.05;59.49805
80911;BME280;70359;51.420;7.032;2024-02-21T04:03:03;1005.472;;;9.97;59.58887
80911;BME280;70359;51.420;7.032;2024-02-21T04:05:28;1005.572;;;10.06;59.24902
80911;BME280;70359;51.420;7.032;2024-02-21T04:07:53;1005.579;;;10.04;59.50781
80911;BME280;70359;51.420;7.032;2024-02-21T04:10:18;1005.564;;;10.14;59.31836
80911;BME280;70359;51.420;7.032;2024-02-21T04:12:43;1005.541;;;10.07;59.36621
80911;BME280;70359;51.420;7.032;2024-02-21T04:15:08;1005.503;;;10.19;59.0625
80911;BME280;70359;51.420;7.032;2024-02-21T04:17:34;1005.575;;;10.14;59.125
80911;BME280;70359;51.420;7.032;2024-02-21T04:20:01;1005.56;;;10.18;58.89355
80911;BME280;70359;51.420;7.032;2024-02-21T04:22:23;1005.492;;;10.09;59.24316
80911;BME280;70359;51.420;7.032;2024-02-21T04:24:48;1005.448;;;10.18;59.13086
80911;BME280;70359;51.420;7.032;2024-02-21T04:27:13;1005.488;;;10.15;58.74316
80911;BME280;70359;51.420;7.032;2024-02-21T04:29:38;1005.471;;;10.22;58.28711
80911;BME280;70359;51.420;7.032;2024-02-21T04:32:05;1005.43;;;10.2;58.79395
80911;BME280;70359;51.420;7.032;2024-02-21T04:34:29;1005.435;;;10.08;58.85742
80911;BME280;70359;51.420;7.032;2024-02-21T04:36:53;1005.445;;;10.15;58.75391
80911;BME280;70359;51.420;7.032;2024-02-21T04:39:18;1005.438;;;10.24;58.59668
80911;BME280;70359;51.420;7.032;2024-02-21T04:41:43;1005.449;;;10.22;58.58105
80911;BME280;70359;51.420;7.032;2024-02-21T04:44:08;1005.427;;;10.27;58.61133
80911;BME280;70359;51.420;7.032;2024-02-21T04:46:33;1005.401;;;10.28;58.52344
80911;BME280;70359;51.420;7.032;2024-02-21T04:48:58;1005.369;;;10.28;58.55762
80911;BME280;70359;51.420;7.032;2024-02-21T04:51:23;1005.335;;;10.35;58.31738
80911;BME280;70359;51.420;7.032;2024-02-21T04:53:48;1005.338;;;10.23;58.21094
80911;BME280;70359;51.420;7.032;2024-02-21T04:56:13;1005.324;;;10.43;57.96484
80911;BME280;70359;51.420;7.032;2024-02-21T04:58:41;1005.314;;;10.36;57.86523
80911;BME280;70359;51.420;7.032;2024-02-21T05:01:03;1005.308;;;10.45;57.58301
80911;BME280;70359;51.420;7.032;2024-02-21T05:03:28;1005.272;;;10.41;57.60059
80911;BME280;70359;51.420;7.032;2024-02-21T05:05:53;1005.234;;;10.43;57.20801
80911;BME280;70359;51.420;7.032;2024-02-21T05:08:18;1005.299;;;10.18;57.59277
80911;BME280;70359;51.420;7.032;2024-02-21T05:10:43;1005.291;;;10.22;57.63281
80911;BME280;70359;51.420;7.032;2024-02-21T05:13:08;1005.318;;;10.15;58.12109
80911;BME280;70359;51.420;7.032;2024-02-21T05:15:33;1005.287;;;10.22;57.63086
80911;BME280;70359;51.420;7.032;2024-02-21T05:17:58;1005.205;;;10.07;57.92871
80911;BME280;70359;51.420;7.032;2024-02-21T05:20:23;1005.085;;;10.19;57.93359
80911;BME280;70359;51.420;7.032;2024-02-21T05:22:48;1005.076;;;10.09;58.14648
80911;BME280;70359;51.420;7.032;2024-02-21T05:25:13;1005.077;;;10.2;57.81152
80911;BME280;70359;51.420;7.032;2024-02-21T05:27:38;1005.108;;;10.16;58.24512
80911;BME280;70359;51.420;7.032;2024-02-21T05:30:04;1005.118;;;10.24;57.87207
80911;BME280;70359;51.420;7.032;2024-02-21T05:32:29;1005.07;;;10.19;58.03613
80911;BME280;70359;51.420;7.032;2024-02-21T05:34:53;1005.064;;;10.22;57.6543
80911;BME280;70359;51.420;7.032;2024-02-21T05:37:18;1005.001;;;10.19;57.98926
80911;BME280;70359;51.420;7.032;2024-02-21T05:39:43;1005.033;;;10.26;57.5918
80911;BME280;70359;51.420;7.032;2024-02-21T05:42:09;1004.926;;;10.22;57.67676
80911;BME280;70359;51.420;7.032;2024-02-21T05:44:33;1004.918;;;10.31;57.60938
80911;BME280;70359;51.420;7.032;2024-02-21T05:46:58;1004.928;;;10.35;57.32031
80911;BME280;70359;51.420;7.032;2024-02-21T05:49:23;1004.909;;;10.39;57.06543
80911;BME280;70359;51.420;7.032;2024-02-21T05:51:48;1004.886;;;10.31;57.00977
80911;BME280;70359;51.420;7.032;2024-02-21T05:54:13;1004.843;;;10.35;57.21777
80911;BME280;70359;51.420;7.032;2024-02-21T05:56:38;1004.805;;;10.18;57.01563
80911;BME280;70359;51.420;7.032;2024-02-21T05:59:03;1004.841;;;10.22;57.19141
80911;BME280;70359;51.420;7.032;2024-02-21T06:01:28;1004.796;;;10.23;57.16992
80911;BME280;70359;51.420;7.032;2024-02-21T06:03:54;1004.75;;;10.25;57.34082
80911;BME280;70359;51.420;7.032;2024-02-21T06:06:19;1004.724;;;10.33;56.97852
80911;BME280;70359;51.420;7.032;2024-02-21T06:08:44;1004.708;;;10.29;56.84863
80911;BME280;70359;51.420;7.032;2024-02-21T06:11:09;1004.617;;;10.33;56.85352
80911;BME280;70359;51.420;7.032;2024-02-21T06:13:37;1004.639;;;10.32;56.81934
80911;BME280;70359;51.420;7.032;2024-02-21T06:15:59;1004.602;;;10.39;56.63477
80911;BME280;70359;51.420;7.032;2024-02-21T06:18:24;1004.541;;;10.3;56.71484
80911;BME280;70359;51.420;7.032;2024-02-21T06:20:49;1004.495;;;10.36;56.5752
80911;BME280;70359;51.420;7.032;2024-02-21T06:23:15;1004.405;;;10.23;56.93164
80911;BME280;70359;51.420;7.032;2024-02-21T06:25:39;1004.374;;;10.2;56.82715
80911;BME280;70359;51.420;7.032;2024-02-21T06:28:04;1004.332;;;10.27;56.75586
80911;BME280;70359;51.420;7.032;2024-02-21T06:30:29;1004.396;;;10.17;57.08203
80911;BME280;70359;51.420;7.032;2024-02-21T06:32:54;1004.357;;;10.11;57.19922
80911;BME280;70359;51.420;7.032;2024-02-21T06:35:19;1004.325;;;10.16;57.1709
80911;BME280;70359;51.420;7.032;2024-02-21T06:37:44;1004.322;;;10.07;57.47656
80911;BME280;70359;51.420;7.032;2024-02-21T06:40:09;1004.241;;;10.17;57.01465
80911;BME280;70359;51.420;7.032;2024-02-21T06:42:34;1004.192;;;10.05;57.42871
80911;BME280;70359;51.420;7.032;2024-02-21T06:44:59;1004.204;;;10.09;57.32031
80911;BME280;70359;51.420;7.032;2024-02-21T06:47:24;1004.153;;;10.06;57.40723
80911;BME280;70359;51.420;7.032;2024-02-21T06:49:51;1004.102;;;10.17;57.19531
80911;BME280;70359;51.420;7.032;2024-02-21T06:52:14;1004.085;;;10.15;57.13672
80911;BME280;70359;51.420;7.032;2024-02-21T06:54:39;1004.067;;;10.21;56.73633
80911;BME280;70359;51.420;7.032;2024-02-21T06:57:04;1004.071;;;10.22;57.04297
80911;BME280;70359;51.420;7.032;2024-02-21T06:59:29;1004.071;;;10.14;56.60254
80911;BME280;70359;51.420;7.032;2024-02-21T07:01:54;1004.115;;;10.18;56.67578
80911;BME280;70359;51.420;7.032;2024-02-21T07:04:19;1004.163;;;10.21;56.65723
80911;BME280;70359;51.420;7.032;2024-02-21T07:06:44;1004.147;;;10.16;56.54785
80911;BME280;70359;51.420;7.032;2024-02-21T07:09:09;1004.159;;;10.13;56.89551
80911;BME280;70359;51.420;7.032;2024-02-21T07:11:34;1004.151;;;10.27;56.34668
80911;BME280;70359;51.420;7.032;2024-02-21T07:13:59;1004.094;;;10.11;56.73438
80911;BME280;70359;51.420;7.032;2024-02-21T07:16:26;1004.163;;;10.16;56.44727
80911;BME280;70359;51.420;7.032;2024-02-21T07:18:49;1004.143;;;10.17;56.64063
80911;BME280;70359;51.420;7.032;2024-02-21T07:21:14;1004.162;;;10.2;56.72363
80911;BME280;70359;51.420;7.032;2024-02-21T07:23:39;1004.116;;;10.12;56.66895
80911;BME280;70359;51.420;7.032;2024-02-21T07:26:04;1004.109;;;10.18;56.59668
80911;BME280;70359;51.420;7.032;2024-02-21T07:28:29;1004.109;;;10.18;56.89063
80911;BME280;70359;51.420;7.032;2024-02-21T07:30:54;1004.045;;;10.19;56.25781
80911;BME280;70359;51.420;7.032;2024-02-21T07:33:19;1004.027;;;10.15;56.91016
80911;BME280;70359;51.420;7.032;2024-02-21T07:35:44;1003.971;;;10.16;56.73047
80911;BME280;70359;51.420;7.032;2024-02-21T07:38:09;1003.963;;;10.25;56.23145
80911;BME280;70359;51.420;7.032;2024-02-21T07:40:34;1003.941;;;10.23;56.58105
80911;BME280;70359;51.420;7.032;2024-02-21T07:42:59;1003.958;;;10.26;56.50586
80911;BME280;70359;51.420;7.032;2024-02-21T07:45:24;1003.91;;;10.4;56.21875
80911;BME280;70359;51.420;7.032;2024-02-21T07:47:49;1003.923;;;10.33;56.63965
80911;BME280;70359;51.420;7.032;2024-02-21T07:50:14;1003.889;;;10.41;56.01563
80911;BME280;70359;51.420;7.032;2024-02-21T07:52:39;1003.911;;;10.3;55.91113
80911;BME280;70359;51.420;7.032;2024-02-21T07:55:04;1003.794;;;10.46;55.96484
80911;BME280;70359;51.420;7.032;2024-02-21T07:57:29;1003.774;;;10.38;56.32813
80911;BME280;70359;51.420;7.032;2024-02-21T07:59:54;1003.738;;;10.43;56.09863
80911;BME280;70359;51.420;7.032;2024-02-21T08:02:19;1003.67;;;10.38;56.22754
80911;BME280;70359;51.420;7.032;2024-02-21T08:04:44;1003.657;;;10.48;56.14844
80911;BME280;70359;51.420;7.032;2024-02-21T08:07:09;1003.629;;;10.37;56.22461
80911;BME280;70359;51.420;7.032;2024-02-21T08:09:34;1003.602;;;10.48;56.10449
80911;BME280;70359;51.420;7.032;2024-02-21T08:11:59;1003.603;;;10.47;56.13574
80911;BME280;70359;51.420;7.032;2024-02-21T08:14:24;1003.538;;;10.34;56.02734
80911;BME280;70359;51.420;7.032;2024-02-21T08:16:49;1003.569;;;10.1;56.56543
80911;BME280;70359;51.420;7.032;2024-02-21T08:19:14;1003.444;;;10.17;56.58301
80911;BME280;70359;51.420;7.032;2024-02-21T08:21:39;1003.384;;;10.29;56.40723
80911;BME280;70359;51.420;7.032;2024-02-21T08:24:04;1003.353;;;10.18;56.85742
80911;BME280;70359;51.420;7.032;2024-02-21T08:26:29;1003.345;;;10.08;57.00293
80911;BME280;70359;51.420;7.032;2024-02-21T08:28:54;1003.307;;;10.21;56.86035
80911;BME280;70359;51.420;7.032;2024-02-21T08:31:22;1003.286;;;10.14;57.12402
80911;BME280;70359;51.420;7.032;2024-02-21T08:33:44;1003.2;;;10.17;57.09375
80911;BME280;70359;51.420;7.032;2024-02-21T08:36:09;1003.159;;;10.21;57.02051
80911;BME280;70359;51.420;7.032;2024-02-21T08:38:34;1003.192;;;10.22;57.02051
80911;BME280;70359;51.420;7.032;2024-02-21T08:40:59;1003.17;;;10.22;57.04297
80911;BME280;70359;51.420;7.032;2024-02-21T08:43:24;1003.14;;;10.2;57.45898
80911;BME280;70359;51.420;7.032;2024-02-21T08:45:49;1003.085;;;10.12;57.52734
80911;BME280;70359;51.420;7.032;2024-02-21T08:48:14;1003.045;;;10.18;57.28711
80911;BME280;70359;51.420;7.032;2024-02-21T08:50:39;1003.088;;;10.22;56.77148
80911;BME280;70359;51.420;7.032;2024-02-21T08:53:04;1003.106;;;10.25;57.05859
80911;BME280;70359;51.420;7.032;2024-02-21T08:55:29;1003.12;;;10.25;57.18359
80911;BME280;70359;51.420;7.032;2024-02-21T08:57:54;1003.093;;;10.2;56.98438
80911;BME280;70359;51.420;7.032;2024-02-21T09:00:19;1003.015;;;10.27;56.56348
80911;BME280;70359;51.420;7.032;2024-02-21T09:02:44;1002.912;;;10.26;56.5166
80911;BME280;70359;51.420;7.032;2024-02-21T09:05:09;1002.993;;;10.33;56.13965
80911;BME280;70359;51.420;7.032;2024-02-21T09:07:34;1002.973;;;10.09;56.65332
80911;BME280;70359;51.420;7.032;2024-02-21T09:36:34;1002.627;;;10.05;56.30859
80911;BME280;70359;51.420;7.032;2024-02-21T09:38:59;1002.581;;;10.11;56.58789
80911;BME280;70359;51.420;7.032;2024-02-21T09:41:25;1002.57;;;10.14;56.23047
80911;BME280;70359;51.420;7.032;2024-02-21T09:43:49;1002.551;;;10.17;56.48145
80911;BME280;70359;51.420;7.032;2024-02-21T09:46:17;1002.452;;;10.27;56.01855
80911;BME280;70359;51.420;7.032;2024-02-21T09:48:43;1002.452;;;10.15;56.10645
80911;BME280;70359;51.420;7.032;2024-02-21T09:51:04;1002.392;;;10.27;56.06543
80911;BME280;70359;51.420;7.032;2024-02-21T09:53:29;1002.473;;;10.14;56.11621
80911;BME280;70359;51.420;7.032;2024-02-21T09:55:54;1002.459;;;10.16;56.32324
80911;BME280;70359;51.420;7.032;2024-02-21T09:58:19;1002.483;;;10.14;56.65918
80911;BME280;70359;51.420;7.032;2024-02-21T10:00:44;1002.547;;;10.1;56.78027
80911;BME280;70359;51.420;7.032;2024-02-21T10:03:09;1002.507;;;10.17;56.77637
80911;BME280;70359;51.420;7.032;2024-02-21T10:05:34;1002.539;;;10.18;56.9248
80911;BME280;70359;51.420;7.032;2024-02-21T10:07:59;1002.473;;;10.28;56.89355
80911;BME280;70359;51.420;7.032;2024-02-21T10:10:24;1002.474;;;10.33;56.76367
80911;BME280;70359;51.420;7.032;2024-02-21T10:12:52;1002.482;;;10.33;56.95508
80911;BME280;70359;51.420;7.032;2024-02-21T10:15:19;1002.369;;;10.49;56.18359
80911;BME280;70359;51.420;7.032;2024-02-21T10:17:39;1002.355;;;10.35;56.7207
80911;BME280;70359;51.420;7.032;2024-02-21T10:20:11;1002.184;;;10.44;55.78125
80911;BME280;70359;51.420;7.032;2024-02-21T10:22:29;1002.204;;;10.24;56.01563
80911;BME280;70359;51.420;7.032;2024-02-21T10:24:54;1002.275;;;10.35;55.63379
80911;BME280;70359;51.420;7.032;2024-02-21T10:27:19;1002.23;;;10.36;55.05762
80911;BME280;70359;51.420;7.032;2024-02-21T10:29:48;1002.189;;;10.52;55.22363
80911;BME280;70359;51.420;7.032;2024-02-21T10:32:10;1002.208;;;10.47;55.39941
80911;BME280;70359;51.420;7.032;2024-02-21T10:34:34;1002.111;;;10.45;54.27539
80911;BME280;70359;51.420;7.032;2024-02-21T10:37:03;1002.109;;;10.4;54.05469
80911;BME280;70359;51.420;7.032;2024-02-21T10:39:24;1002.026;;;10.46;54.52637
80911;BME280;70359;51.420;7.032;2024-02-21T10:41:49;1001.974;;;10.54;54.41113
80911;BME280;70359;51.420;7.032;2024-02-21T10:44:14;1001.994;;;10.52;54.19238
80911;BME280;70359;51.420;7.032;2024-02-21T10:46:39;1001.898;;;10.57;53.8252
80911;BME280;70359;51.420;7.032;2024-02-21T10:49:07;1001.885;;;10.48;53.73633
80911;BME280;70359;51.420;7.032;2024-02-21T10:51:33;1001.887;;;10.42;53.65918
80911;BME280;70359;51.420;7.032;2024-02-21T10:53:56;1001.802;;;10.42;53.64941
80911;BME280;70359;51.420;7.032;2024-02-21T10:56:21;1001.712;;;10.45;54.09473
80911;BME280;70359;51.420;7.032;2024-02-21T10:58:44;1001.655;;;10.52;54.31836
80911;BME280;70359;51.420;7.032;2024-02-21T11:01:09;1001.587;;;10.63;54.07129
80911;BME280;70359;51.420;7.032;2024-02-21T11:03:34;1001.534;;;10.53;53.75293
80911;BME280;70359;51.420;7.032;2024-02-21T11:05:59;1001.454;;;10.61;53.8877
80911;BME280;70359;51.420;7.032;2024-02-21T11:08:24;1001.294;;;10.42;53.61426
80911;BME280;70359;51.420;7.032;2024-02-21T11:10:49;1001.219;;;10.53;53.92188
80911;BME280;70359;51.420;7.032;2024-02-21T11:13:14;1001.062;;;10.63;54.19629
80911;BME280;70359;51.420;7.032;2024-02-21T11:15:39;1001.045;;;10.44;52.8916
80911;BME280;70359;51.420;7.032;2024-02-21T11:18:04;1000.919;;;10.54;53.78809
80911;BME280;70359;51.420;7.032;2024-02-21T11:20:35;1000.819;;;10.61;52.87793
80911;BME280;70359;51.420;7.032;2024-02-21T11:22:54;1000.781;;;10.59;52.64941
80911;BME280;70359;51.420;7.032;2024-02-21T11:27:48;1000.556;;;10.63;53.14258
80911;BME280;70359;51.420;7.032;2024-02-21T11:30:11;1000.458;;;10.7;53.66016
80911;BME280;70359;51.420;7.032;2024-02-21T11:32:34;1000.438;;;10.49;52.72754
80911;BME280;70359;51.420;7.032;2024-02-21T11:34:59;1000.336;;;10.44;53.80957
80911;BME280;70359;51.420;7.032;2024-02-21T11:37:24;1000.13;;;10.58;52.99902
80911;BME280;70359;51.420;7.032;2024-02-21T11:39:49;1000.086;;;10.61;53.19629
80911;BME280;70359;51.420;7.032;2024-02-21T11:42:14;1000.07;;;10.71;53.38965
80911;BME280;70359;51.420;7.032;2024-02-21T11:44:39;1000.03;;;10.76;52.30566
80911;BME280;70359;51.420;7.032;2024-02-21T11:47:04;999.9867;;;10.68;52.51172
80911;BME280;70359;51.420;7.032;2024-02-21T11:49:29;999.929;;;10.83;51.92871
80911;BME280;70359;51.420;7.032;2024-02-21T11:52:01;999.806;;;10.64;51.22559
80911;BME280;70359;51.420;7.032;2024-02-21T11:54:19;999.7285;;;10.52;51.80176
80911;BME280;70359;51.420;7.032;2024-02-21T11:56:44;999.6195;;;10.44;51.96191
80911;BME280;70359;51.420;7.032;2024-02-21T11:59:09;999.4373;;;10.31;52.42188
80911;BME280;70359;51.420;7.032;2024-02-21T12:01:34;999.412;;;10.41;51.85547
80911;BME280;70359;51.420;7.032;2024-02-21T12:03:59;999.3299;;;10.55;52.38281
80911;BME280;70359;51.420;7.032;2024-02-21T12:06:24;999.3038;;;10.62;52.40332
80911;BME280;70359;51.420;7.032;2024-02-21T12:08:49;999.3123;;;10.53;51.9375
80911;BME280;70359;51.420;7.032;2024-02-21T12:11:22;999.1202;;;10.62;51.14355
80911;BME280;70359;51.420;7.032;2024-02-21T12:13:39;999.084;;;10.46;51.35156
80911;BME280;70359;51.420;7.032;2024-02-21T12:16:04;998.9398;;;10.64;51.00977
80911;BME280;70359;51.420;7.032;2024-02-21T12:18:29;998.8926;;;10.54;51.41797
80911;BME280;70359;51.420;7.032;2024-02-21T12:20:54;998.9028;;;10.69;50.99316
80911;BME280;70359;51.420;7.032;2024-02-21T12:23:21;998.8062;;;10.74;50.96484
80911;BME280;70359;51.420;7.032;2024-02-21T12:25:44;998.7326;;;10.86;50.35449
80911;BME280;70359;51.420;7.032;2024-02-21T12:28:09;998.6265;;;10.77;50.38965
80911;BME280;70359;51.420;7.032;2024-02-21T12:30:34;998.5126;;;10.81;50.48438
80911;BME280;70359;51.420;7.032;2024-02-21T12:32:59;998.486;;;10.64;50.19238
80911;BME280;70359;51.420;7.032;2024-02-21T12:35:24;998.4913;;;10.85;50.56836
80911;BME280;70359;51.420;7.032;2024-02-21T12:37:49;998.483;;;10.63;50.57715
80911;BME280;70359;51.420;7.032;2024-02-21T12:40:15;998.481;;;10.71;50.73438
80911;BME280;70359;51.420;7.032;2024-02-21T12:42:39;998.465;;;10.72;50.65625
80911;BME280;70359;51.420;7.032;2024-02-21T12:45:05;998.4916;;;10.92;50.20313
80911;BME280;70359;51.420;7.032;2024-02-21T12:47:29;998.3119;;;11.05;50.61426
80911;BME280;70359;51.420;7.032;2024-02-21T12:49:54;998.4183;;;11.05;50.20605